Airfield :
LOGIN :

Register | Disclaimer

   EN    FR    IT 

 










Legend :    VFR   Marginal VFR   IFR   Intensive IFR   Very Intensive IFR
Visi :
Ceiling :
>= 8 km
>= 3000ft
5 to 8 km
1000 to 3000 ft
1500m to 5 km
500 to 1000 ft
800 to 1500m
200 to 500 ft
< 800m
< 200 ft
Symbols :   Thunderstorms  Fog  Heavy snow  Heavy precipitations  Wind > 20 kt
SIGMETs :     Misc.  Thunderstorms  Icing  Turbulence  Mountain Waves  Volcanic Ashes






- Airport Elevation : 18 ft
- IATA code : AJA


LFKJ - Ajaccio

CURRENT METAR :
  • 020130Z AUTO 04007KT CAVOK 06/05 Q1028 NOSIG

EXPIRED METARs :
  • 020100Z AUTO 04007KT CAVOK 07/05 Q1028 NOSIG
  • 020030Z AUTO 04007KT CAVOK 07/05 Q1028 NOSIG
  • 020000Z AUTO 04006KT CAVOK 06/05 Q1028 NOSIG
  • 012330Z AUTO 05005KT CAVOK 07/05 Q1028 NOSIG
  • 012300Z AUTO 05006KT CAVOK 07/05 Q1028 NOSIG

TAF TAF LFKJ
Valid from the 01 at 21:00 until the 02 at 21:00 UTC


012000Z 0121/0221 05005KT CAVOK
BECMG 0209/0211 24005KT
BECMG 0217/0219 05005KT
ATIS : +33 4 95 23 59 85



MET'MAP, your aeronautical weather chart ! - Copyright ORBIFLY December 2007 - Disclaimer

ORBIFLY MET'MAP TEAM :

Programming & Development : Alexandra Zaïnal
Concept & original design : Baudouin d'Aumeries
Assistance for programming : Marc-Olivier Méhu
Technical & hardware support : Manuel Goepfert

Contact : metmap@orbifly.com




SOURCES & CREDITS :

   NOAA